Time;durP1;ratioP1;P1;durP2;ratioP2;P2;SDS_P1;SDS_P2;PMS_P1;PMS_P2;Temp;Humidity;BMP_temperature;BMP_pressure;BME280_temperature;BME280_humidity;BME280_pressure;Samples;Min_cycle;Max_cycle;Signal;HPM_P1;HPM_P2
2023/11/16 00:00:56;;;;;;;4.13;1.60;;;8.10;99.90;;;;;;4995314;28;20092;-82
2023/11/16 00:03:23;;;;;;;4.65;0.98;;;8.10;99.90;;;;;;4985434;28;20042;-82
2023/11/16 00:05:49;;;;;;;3.00;0.70;;;8.20;99.90;;;;;;4996358;28;21110;-82
2023/11/16 00:08:16;;;;;;;5.95;1.50;;;8.10;99.90;;;;;;4987097;28;20497;-83
2023/11/16 00:10:42;;;;;;;2.88;1.00;;;8.10;99.90;;;;;;4984735;28;20022;-83
2023/11/16 00:13:09;;;;;;;4.25;1.20;;;8.10;99.90;;;;;;4969137;28;20798;-81
2023/11/16 00:15:35;;;;;;;15.63;1.63;;;8.20;99.90;;;;;;4981933;28;20085;-83
2023/11/16 00:18:04;;;;;;;12.70;1.90;;;8.20;99.90;;;;;;4966036;28;20051;-84
2023/11/16 00:20:32;;;;;;;7.55;1.73;;;8.10;99.90;;;;;;4955851;28;20519;-83
2023/11/16 00:22:58;;;;;;;6.95;1.67;;;8.40;99.90;;;;;;4967755;28;20037;-83
2023/11/16 00:25:23;;;;;;;9.15;1.73;;;8.20;99.90;;;;;;4968871;28;20038;-83
2023/11/16 00:27:50;;;;;;;5.82;1.00;;;8.30;99.90;;;;;;4968139;28;21014;-83
2023/11/16 00:30:16;;;;;;;11.00;2.78;;;8.20;99.90;;;;;;4966358;28;20161;-83
2023/11/16 00:32:41;;;;;;;8.98;2.28;;;8.30;99.90;;;;;;4968271;28;20443;-83
2023/11/16 00:35:07;;;;;;;6.88;1.55;;;8.20;99.90;;;;;;4997506;28;20041;-84
2023/11/16 00:37:34;;;;;;;5.65;1.70;;;8.20;99.90;;;;;;4983613;28;20173;-83
2023/11/16 00:40:00;;;;;;;9.93;2.35;;;8.20;99.90;;;;;;4968670;28;20046;-83
2023/11/16 00:42:28;;;;;;;7.82;1.83;;;8.20;99.90;;;;;;4969181;28;20030;-83
2023/11/16 00:44:53;;;;;;;9.13;1.17;;;8.20;99.90;;;;;;4982145;28;20045;-83
2023/11/16 00:47:19;;;;;;;7.50;1.80;;;8.20;99.90;;;;;;5014374;28;20042;-84
2023/11/16 00:49:48;;;;;;;5.53;1.92;;;8.30;99.90;;;;;;4982551;28;21954;-84
2023/11/16 00:52:14;;;;;;;8.90;1.60;;;8.30;99.90;;;;;;4967654;28;20045;-84
2023/11/16 00:54:39;;;;;;;5.88;1.77;;;8.30;99.90;;;;;;4997630;28;20418;-84
2023/11/16 00:57:05;;;;;;;5.95;1.98;;;8.30;99.90;;;;;;4968338;28;20118;-84
2023/11/16 00:59:31;;;;;;;11.73;2.30;;;8.30;99.90;;;;;;4982816;28;20482;-83
2023/11/16 01:01:58;;;;;;;8.98;2.38;;;8.30;99.90;;;;;;5011491;28;20372;-85
2023/11/16 01:04:24;;;;;;;5.63;1.17;;;8.20;99.90;;;;;;4994292;28;20073;-84
2023/11/16 01:06:50;;;;;;;5.57;1.75;;;8.20;99.90;;;;;;4980956;28;20069;-83
2023/11/16 01:09:16;;;;;;;7.28;1.83;;;8.30;99.90;;;;;;4988645;28;20121;-84
2023/11/16 01:11:42;;;;;;;11.70;2.17;;;8.30;99.90;;;;;;4997995;28;20026;-83
2023/11/16 01:14:08;;;;;;;9.25;2.20;;;8.30;99.90;;;;;;4982861;28;20041;-83
2023/11/16 01:16:44;;;;;;;12.82;2.05;;;8.30;99.90;;;;;;4968133;28;20494;-83
2023/11/16 01:19:09;;;;;;;7.28;2.15;;;8.30;99.90;;;;;;4968878;28;20048;-83
2023/11/16 01:21:41;;;;;;;11.55;2.40;;;8.30;99.90;;;;;;4967391;28;20026;-83
2023/11/16 01:24:11;;;;;;;11.23;2.30;;;8.30;99.90;;;;;;4983517;28;20058;-83
2023/11/16 01:26:39;;;;;;;17.38;2.63;;;8.30;99.90;;;;;;4967543;28;20035;-83
2023/11/16 01:29:10;;;;;;;7.47;1.58;;;8.30;99.90;;;;;;4966958;28;20048;-83
2023/11/16 01:31:39;;;;;;;10.27;1.90;;;8.30;99.90;;;;;;4983673;28;20030;-82
2023/11/16 01:34:12;;;;;;;7.05;1.40;;;8.30;99.90;;;;;;4972375;28;20030;-83
2023/11/16 01:36:38;;;;;;;6.35;1.95;;;8.30;99.90;;;;;;4999301;28;20182;-83
2023/11/16 01:39:04;;;;;;;5.70;1.25;;;8.30;99.90;;;;;;4971618;28;20035;-83
2023/11/16 01:41:30;;;;;;;5.32;0.90;;;8.30;99.90;;;;;;4998865;28;20411;-82
2023/11/16 01:43:56;;;;;;;6.55;1.55;;;8.20;99.90;;;;;;4986279;28;20039;-82
2023/11/16 01:46:26;;;;;;;6.45;1.38;;;8.30;99.90;;;;;;4969912;28;20712;-83
2023/11/16 01:48:52;;;;;;;8.93;2.42;;;8.30;99.90;;;;;;4986840;28;20034;-83
2023/11/16 01:51:18;;;;;;;9.27;2.58;;;8.30;99.90;;;;;;4988405;28;20031;-84
2023/11/16 01:53:44;;;;;;;5.13;1.70;;;8.30;99.90;;;;;;4984082;28;20423;-84
2023/11/16 01:56:10;;;;;;;9.95;1.73;;;8.30;99.90;;;;;;4987072;28;20053;-83
2023/11/16 01:58:37;;;;;;;6.07;1.90;;;8.30;99.90;;;;;;4988301;28;20039;-84
2023/11/16 02:01:03;;;;;;;12.23;2.42;;;8.30;99.90;;;;;;5004189;28;20044;-83
2023/11/16 02:03:29;;;;;;;6.70;1.10;;;8.20;99.90;;;;;;4996484;28;20049;-84
2023/11/16 02:05:56;;;;;;;3.85;1.13;;;8.20;99.90;;;;;;4986661;28;20038;-84
2023/11/16 02:08:22;;;;;;;6.85;1.50;;;8.30;99.90;;;;;;5002868;28;20034;-83
2023/11/16 02:10:49;;;;;;;9.85;2.13;;;8.30;99.90;;;;;;4970193;28;20070;-83
2023/11/16 02:13:20;;;;;;;4.28;1.45;;;8.30;99.90;;;;;;4986264;28;20038;-83
2023/11/16 02:15:46;;;;;;;9.07;1.92;;;8.20;99.90;;;;;;5002874;28;20030;-84
2023/11/16 02:18:14;;;;;;;3.08;1.13;;;8.20;99.90;;;;;;4983979;28;20035;-83
2023/11/16 02:20:40;;;;;;;9.82;2.05;;;8.10;99.90;;;;;;4970642;28;20034;-83
2023/11/16 02:23:05;;;;;;;8.05;1.70;;;8.10;99.90;;;;;;4997943;28;20042;-83
2023/11/16 02:25:44;;;;;;;6.78;1.55;;;8.10;99.90;;;;;;4999507;28;20370;-83
2023/11/16 02:28:09;;;;;;;13.00;1.83;;;8.10;99.90;;;;;;4999379;28;20577;-83
2023/11/16 02:30:36;;;;;;;8.43;1.40;;;8.10;99.90;;;;;;5000505;28;20031;-83
2023/11/16 02:33:03;;;;;;;7.60;1.23;;;8.10;99.90;;;;;;4968637;28;20518;-82
2023/11/16 02:35:28;;;;;;;9.02;2.20;;;8.10;99.90;;;;;;4977932;28;20059;-83
2023/11/16 02:37:54;;;;;;;8.35;2.33;;;8.10;99.90;;;;;;4986917;28;20524;-83
2023/11/16 02:40:20;;;;;;;11.32;2.20;;;8.10;99.90;;;;;;4968273;28;20070;-83
2023/11/16 02:42:47;;;;;;;6.18;1.83;;;8.10;99.90;;;;;;4998799;28;20541;-84
2023/11/16 02:45:13;;;;;;;9.43;1.70;;;8.10;99.90;;;;;;4970623;28;20526;-84
2023/11/16 02:47:39;;;;;;;7.75;2.28;;;8.00;99.90;;;;;;4969654;28;20031;-83
2023/11/16 02:50:05;;;;;;;9.55;1.70;;;8.10;99.90;;;;;;5014311;28;20221;-82
2023/11/16 02:52:31;;;;;;;6.40;1.58;;;8.00;99.90;;;;;;4999227;28;20118;-83
2023/11/16 02:54:56;;;;;;;15.38;2.10;;;8.00;99.90;;;;;;4970365;28;20042;-83
2023/11/16 02:57:23;;;;;;;12.77;2.47;;;8.00;99.90;;;;;;4982810;28;20050;-83
2023/11/16 02:59:49;;;;;;;7.07;1.40;;;8.00;99.90;;;;;;4988118;28;20035;-83
2023/11/16 03:02:18;;;;;;;9.75;1.60;;;8.10;99.90;;;;;;4985018;28;20117;-83
2023/11/16 03:04:44;;;;;;;6.10;0.90;;;8.10;99.90;;;;;;4988812;28;20031;-83
2023/11/16 03:07:10;;;;;;;11.85;2.13;;;8.00;99.90;;;;;;4983991;28;20038;-84
2023/11/16 03:09:36;;;;;;;13.23;2.38;;;8.00;99.90;;;;;;5016570;28;20045;-83
2023/11/16 03:12:02;;;;;;;9.52;1.83;;;8.10;99.90;;;;;;4969341;28;20056;-84
2023/11/16 03:14:27;;;;;;;9.90;2.38;;;8.00;99.90;;;;;;4999354;28;20490;-83
2023/11/16 03:16:55;;;;;;;13.05;2.20;;;8.00;99.90;;;;;;5003072;28;20065;-84
2023/11/16 03:19:21;;;;;;;11.30;2.08;;;8.10;99.90;;;;;;4969158;28;20050;-84
2023/11/16 03:21:49;;;;;;;14.70;3.05;;;8.10;99.90;;;;;;4984495;28;20030;-84
2023/11/16 03:24:14;;;;;;;7.40;2.15;;;8.10;99.90;;;;;;4968846;28;20049;-84
2023/11/16 03:26:40;;;;;;;11.23;2.00;;;8.10;99.90;;;;;;4983524;28;20030;-83
2023/11/16 03:29:05;;;;;;;5.93;2.60;;;8.10;99.90;;;;;;4983611;28;20027;-84
2023/11/16 03:31:35;;;;;;;8.68;2.65;;;8.10;99.90;;;;;;4999597;28;20173;-84
2023/11/16 03:34:01;;;;;;;4.60;1.50;;;8.00;99.90;;;;;;4998370;28;20026;-84
2023/11/16 03:36:27;;;;;;;11.63;2.50;;;8.00;99.90;;;;;;4968772;28;20045;-84
2023/11/16 03:38:52;;;;;;;8.45;1.60;;;8.00;99.90;;;;;;4996069;28;20678;-82
2023/11/16 03:41:18;;;;;;;4.32;1.17;;;8.10;99.90;;;;;;4968555;28;20034;-83
2023/11/16 03:43:43;;;;;;;3.95;1.70;;;8.00;99.90;;;;;;4998961;28;20061;-84
2023/11/16 03:46:09;;;;;;;9.13;2.53;;;8.10;99.90;;;;;;4984747;28;20065;-83
2023/11/16 03:48:34;;;;;;;14.70;2.22;;;8.10;99.90;;;;;;4999600;28;20074;-81
2023/11/16 03:51:02;;;;;;;2.10;0.98;;;8.10;99.90;;;;;;4982654;28;20030;-84
2023/11/16 03:53:27;;;;;;;5.88;1.85;;;8.10;99.90;;;;;;4968808;28;20388;-83
2023/11/16 03:55:53;;;;;;;7.20;1.92;;;8.00;99.90;;;;;;4970572;28;20027;-83
2023/11/16 03:58:19;;;;;;;9.30;1.67;;;8.10;99.90;;;;;;4982550;28;20039;-83
2023/11/16 04:00:45;;;;;;;11.10;1.98;;;8.00;99.90;;;;;;5015770;28;20042;-83
2023/11/16 04:03:11;;;;;;;2.40;1.58;;;8.10;99.90;;;;;;4982657;28;20042;-84
2023/11/16 04:05:37;;;;;;;6.55;0.95;;;8.10;99.90;;;;;;4981788;28;20121;-83
2023/11/16 04:08:05;;;;;;;8.95;1.85;;;8.10;99.90;;;;;;4983600;28;20117;-84
2023/11/16 04:10:31;;;;;;;11.00;3.35;;;8.00;99.90;;;;;;4999524;28;20027;-84
2023/11/16 04:12:56;;;;;;;8.93;2.83;;;8.10;99.90;;;;;;4969184;28;20032;-83
2023/11/16 04:15:22;;;;;;;3.60;1.58;;;8.10;99.90;;;;;;4968928;28;20061;-84
2023/11/16 04:17:48;;;;;;;8.52;2.30;;;8.10;99.90;;;;;;4967929;28;20560;-84
2023/11/16 04:20:14;;;;;;;10.05;2.20;;;8.10;99.90;;;;;;4983258;28;20037;-84
2023/11/16 04:22:40;;;;;;;10.40;2.30;;;8.10;99.90;;;;;;4981827;28;20322;-84
2023/11/16 04:25:18;;;;;;;11.40;2.55;;;8.10;99.90;;;;;;4997836;28;20026;-83
2023/11/16 04:27:45;;;;;;;2.03;1.00;;;8.10;99.90;;;;;;4998317;28;20528;-83
2023/11/16 04:30:13;;;;;;;8.57;2.90;;;8.00;99.90;;;;;;4997301;28;20552;-84
2023/11/16 04:32:42;;;;;;;8.02;1.40;;;8.00;99.90;;;;;;4984452;28;20580;-83
2023/11/16 04:35:09;;;;;;;11.85;2.80;;;8.00;99.90;;;;;;4985415;28;20034;-82
2023/11/16 04:37:37;;;;;;;6.45;2.00;;;8.00;99.90;;;;;;5015245;28;20046;-80
2023/11/16 04:40:08;;;;;;;6.80;2.20;;;8.10;99.90;;;;;;4968722;28;20042;-83
2023/11/16 04:42:33;;;;;;;9.93;2.63;;;8.10;99.90;;;;;;4984572;28;20419;-81
2023/11/16 04:45:03;;;;;;;7.72;2.55;;;8.10;99.90;;;;;;4980974;28;20038;-81
2023/11/16 04:47:29;;;;;;;9.18;1.83;;;8.10;99.90;;;;;;4968877;28;20537;-84
2023/11/16 04:49:55;;;;;;;9.40;2.30;;;8.00;99.90;;;;;;4982121;28;20038;-84
2023/11/16 04:52:23;;;;;;;14.80;2.83;;;8.00;99.90;;;;;;4999504;28;20518;-82
2023/11/16 04:54:49;;;;;;;7.05;2.38;;;8.00;99.90;;;;;;4969843;28;20042;-83
2023/11/16 04:57:15;;;;;;;3.40;1.00;;;8.00;99.90;;;;;;4984295;28;20064;-84
2023/11/16 04:59:40;;;;;;;5.53;1.55;;;8.00;99.90;;;;;;4984881;28;20038;-84
2023/11/16 05:02:07;;;;;;;5.53;1.92;;;8.00;99.90;;;;;;5000276;28;20030;-84
2023/11/16 05:04:32;;;;;;;13.77;2.70;;;8.00;99.90;;;;;;4968189;28;20084;-84
2023/11/16 05:06:58;;;;;;;10.82;2.75;;;8.00;99.90;;;;;;4983871;28;20042;-83
2023/11/16 05:09:26;;;;;;;4.93;2.22;;;8.10;99.90;;;;;;4983417;28;20038;-83
2023/11/16 05:11:51;;;;;;;12.40;1.95;;;8.00;99.90;;;;;;4983383;28;20047;-83
2023/11/16 05:14:19;;;;;;;12.77;2.25;;;8.00;99.90;;;;;;5000130;28;20084;-83
2023/11/16 05:16:45;;;;;;;11.18;1.92;;;7.90;99.90;;;;;;5012130;28;20038;-83
2023/11/16 05:19:11;;;;;;;6.00;2.20;;;8.00;99.90;;;;;;4983456;28;20040;-84
2023/11/16 05:21:36;;;;;;;10.30;2.67;;;8.00;99.90;;;;;;4986185;28;20034;-84
2023/11/16 05:24:03;;;;;;;6.72;2.40;;;8.00;99.90;;;;;;4967044;28;20026;-84
2023/11/16 05:26:28;;;;;;;5.05;1.30;;;7.90;99.90;;;;;;4966953;28;20026;-84
2023/11/16 05:28:55;;;;;;;10.43;2.67;;;7.90;99.90;;;;;;4982873;28;20592;-82
2023/11/16 05:31:21;;;;;;;8.35;1.98;;;7.90;99.90;;;;;;4984474;28;20233;-83
2023/11/16 05:33:47;;;;;;;16.33;2.88;;;7.90;99.90;;;;;;4994619;28;20058;-82
2023/11/16 05:36:12;;;;;;;4.25;1.88;;;7.90;99.90;;;;;;4982272;28;20515;-82
2023/11/16 05:38:38;;;;;;;3.15;1.58;;;7.90;99.90;;;;;;4965836;28;20491;-82
2023/11/16 05:41:04;;;;;;;6.53;2.13;;;7.90;99.90;;;;;;4982365;28;20043;-81
2023/11/16 05:43:30;;;;;;;11.27;2.17;;;7.80;99.90;;;;;;4996792;28;20525;-81
2023/11/16 05:45:56;;;;;;;12.55;2.60;;;7.90;99.90;;;;;;4993527;28;20030;-81
2023/11/16 05:48:21;;;;;;;5.05;1.38;;;7.90;99.90;;;;;;4996178;28;20109;-82
2023/11/16 05:50:47;;;;;;;7.50;1.90;;;7.80;99.90;;;;;;4982247;28;20058;-82
2023/11/16 05:53:12;;;;;;;3.72;0.82;;;7.80;99.90;;;;;;4995021;28;20033;-82
2023/11/16 05:55:38;;;;;;;23.35;3.28;;;7.80;99.90;;;;;;4997274;28;20038;-83
2023/11/16 05:58:06;;;;;;;5.72;2.80;;;7.80;99.90;;;;;;5012423;28;20042;-83
2023/11/16 06:00:33;;;;;;;7.68;2.42;;;7.80;99.90;;;;;;4983423;28;20038;-82
2023/11/16 06:02:59;;;;;;;9.70;2.28;;;7.80;99.90;;;;;;4979700;28;20560;-84
2023/11/16 06:05:24;;;;;;;11.43;2.75;;;7.80;99.90;;;;;;4983833;28;20127;-83
2023/11/16 06:07:50;;;;;;;9.50;2.60;;;7.80;99.90;;;;;;5016407;28;20042;-83
2023/11/16 06:10:21;;;;;;;10.60;3.40;;;7.80;99.90;;;;;;4994223;28;20045;-81
2023/11/16 06:12:46;;;;;;;13.20;3.22;;;7.80;99.90;;;;;;4977477;28;20388;-82
2023/11/16 06:15:14;;;;;;;12.75;2.90;;;7.70;99.90;;;;;;4998349;28;20054;-81
2023/11/16 06:17:43;;;;;;;10.13;2.47;;;7.70;99.90;;;;;;4966485;28;20530;-82
2023/11/16 06:20:10;;;;;;;13.63;2.60;;;7.70;99.90;;;;;;4999203;28;20514;-82
2023/11/16 06:22:40;;;;;;;10.43;2.42;;;7.70;99.90;;;;;;4970365;28;20606;-81
2023/11/16 06:25:10;;;;;;;9.15;2.45;;;7.80;99.90;;;;;;4985134;28;20030;-79
2023/11/16 06:27:36;;;;;;;6.18;2.42;;;7.90;99.90;;;;;;5014120;28;20038;-81
2023/11/16 06:30:02;;;;;;;6.25;2.45;;;7.90;99.90;;;;;;4985060;28;20030;-82
2023/11/16 06:32:28;;;;;;;8.90;2.65;;;7.80;99.90;;;;;;4999260;28;20041;-81
2023/11/16 06:34:54;;;;;;;7.20;2.20;;;7.80;99.90;;;;;;5002995;28;20038;-82
2023/11/16 06:37:20;;;;;;;4.38;1.80;;;7.70;99.90;;;;;;4984147;28;20450;-82
2023/11/16 06:39:46;;;;;;;9.30;2.35;;;7.70;99.90;;;;;;4997989;28;20046;-82
2023/11/16 06:42:11;;;;;;;10.75;2.75;;;7.80;99.90;;;;;;4983552;28;20034;-81
2023/11/16 06:44:37;;;;;;;8.50;2.70;;;7.80;99.90;;;;;;4984237;28;20026;-81
2023/11/16 06:47:03;;;;;;;8.32;2.28;;;7.80;99.90;;;;;;4999674;28;20125;-81
2023/11/16 06:49:28;;;;;;;8.05;2.35;;;7.80;99.90;;;;;;4985063;28;20092;-82
2023/11/16 06:51:54;;;;;;;7.85;3.08;;;7.80;99.90;;;;;;5001036;28;20030;-81
2023/11/16 06:54:21;;;;;;;6.25;3.25;;;7.70;99.90;;;;;;4985511;28;20087;-82
2023/11/16 06:56:49;;;;;;;3.78;2.03;;;7.70;99.90;;;;;;4983074;28;20088;-82
2023/11/16 06:59:19;;;;;;;5.55;2.10;;;7.70;99.90;;;;;;4992297;28;20447;-81
2023/11/16 07:01:47;;;;;;;9.20;3.47;;;7.60;99.90;;;;;;4967002;28;20038;-81
2023/11/16 07:04:15;;;;;;;9.32;2.25;;;7.60;99.90;;;;;;4969858;28;20403;-81
2023/11/16 07:06:43;;;;;;;8.68;2.50;;;7.70;99.90;;;;;;4986040;28;20632;-82
2023/11/16 07:09:11;;;;;;;7.82;2.50;;;7.70;99.90;;;;;;4968938;28;20481;-81
2023/11/16 07:11:41;;;;;;;9.30;2.85;;;7.70;99.90;;;;;;4983831;28;20026;-82
2023/11/16 07:14:07;;;;;;;8.70;3.20;;;7.80;99.90;;;;;;4998336;28;20070;-82
2023/11/16 07:16:33;;;;;;;10.38;2.70;;;7.80;99.90;;;;;;4983787;28;20030;-80
2023/11/16 07:18:58;;;;;;;9.65;3.00;;;7.80;99.90;;;;;;4996719;28;20421;-83
2023/11/16 07:21:24;;;;;;;5.00;2.15;;;7.80;99.90;;;;;;4984502;28;20065;-82
2023/11/16 07:23:50;;;;;;;10.50;2.67;;;7.80;99.90;;;;;;4982521;28;20023;-82
2023/11/16 07:26:18;;;;;;;14.48;3.15;;;7.80;99.90;;;;;;4985225;28;20525;-82
2023/11/16 07:28:45;;;;;;;11.85;2.38;;;7.80;99.90;;;;;;4969053;28;20031;-82
2023/11/16 07:31:14;;;;;;;10.85;2.20;;;7.80;99.90;;;;;;4968681;28;20522;-82
2023/11/16 07:33:39;;;;;;;5.32;2.38;;;7.90;99.90;;;;;;4968879;28;20035;-81
2023/11/16 07:36:06;;;;;;;11.27;2.90;;;7.90;99.90;;;;;;5004249;28;20030;-83
2023/11/16 07:38:32;;;;;;;8.75;2.08;;;7.90;99.90;;;;;;4992839;28;20376;-82
2023/11/16 07:40:57;;;;;;;7.55;2.00;;;7.80;99.90;;;;;;4985256;28;20034;-83
2023/11/16 07:43:26;;;;;;;8.73;3.08;;;7.90;99.90;;;;;;4983947;28;20031;-83
2023/11/16 07:45:52;;;;;;;6.03;2.35;;;7.90;99.90;;;;;;4983924;28;20100;-83
2023/11/16 07:48:19;;;;;;;11.43;2.92;;;7.80;99.90;;;;;;4968203;28;20114;-83
2023/11/16 07:50:44;;;;;;;11.52;2.75;;;7.80;99.90;;;;;;4983856;28;20384;-83
2023/11/16 07:53:10;;;;;;;11.68;2.88;;;7.80;99.90;;;;;;5002421;28;20029;-82
2023/11/16 07:55:36;;;;;;;6.78;2.10;;;7.80;99.90;;;;;;5001012;28;20304;-82
2023/11/16 07:58:03;;;;;;;10.07;2.70;;;7.80;99.90;;;;;;5004208;28;20030;-81
2023/11/16 08:00:34;;;;;;;6.20;2.38;;;7.70;99.90;;;;;;4968836;28;20485;-83
2023/11/16 08:05:46;;;;;;;6.55;3.38;;;7.80;99.90;;;;;;4999748;28;20093;-83
2023/11/16 08:08:13;;;;;;;13.77;2.47;;;7.90;99.90;;;;;;4999726;28;20038;-82
2023/11/16 08:10:42;;;;;;;10.18;3.00;;;7.90;99.90;;;;;;4982960;28;20073;-83
2023/11/16 08:13:10;;;;;;;7.53;2.47;;;7.90;99.90;;;;;;4997865;28;20622;-81
2023/11/16 08:15:39;;;;;;;7.10;2.45;;;7.90;99.90;;;;;;4980397;28;20053;-80
2023/11/16 08:18:06;;;;;;;15.15;4.45;;;8.00;99.90;;;;;;4968213;28;20038;-81
2023/11/16 08:20:32;;;;;;;16.27;4.25;;;7.90;99.90;;;;;;4982732;28;20041;-81
2023/11/16 08:23:01;;;;;;;5.30;1.92;;;8.00;99.90;;;;;;4982899;28;20038;-81
2023/11/16 08:25:28;;;;;;;10.63;3.35;;;8.00;99.90;;;;;;4987154;28;20050;-81
2023/11/16 08:27:54;;;;;;;7.43;2.25;;;8.00;99.90;;;;;;4983185;28;20411;-80
2023/11/16 08:30:22;;;;;;;12.10;4.25;;;8.00;99.90;;;;;;4983600;28;20047;-81
2023/11/16 08:32:47;;;;;;;7.32;2.45;;;8.10;99.90;;;;;;4969051;28;20121;-81
2023/11/16 08:35:17;;;;;;;10.68;3.70;;;8.10;99.90;;;;;;4984469;28;20181;-81
2023/11/16 08:37:43;;;;;;;4.20;1.85;;;8.10;99.90;;;;;;4995142;28;20053;-81
2023/11/16 08:40:09;;;;;;;10.52;3.03;;;8.20;99.90;;;;;;4981877;28;20034;-81
2023/11/16 08:42:42;;;;;;;6.80;2.30;;;8.20;99.90;;;;;;4979173;28;20054;-81
2023/11/16 08:45:17;;;;;;;12.05;3.55;;;8.30;99.90;;;;;;4983143;28;20038;-82
2023/11/16 08:47:44;;;;;;;13.00;3.88;;;8.30;99.90;;;;;;4983277;28;20442;-81
2023/11/16 08:50:12;;;;;;;6.82;3.13;;;8.40;99.90;;;;;;4979712;28;20057;-81
2023/11/16 08:52:41;;;;;;;4.95;2.38;;;8.40;99.90;;;;;;4991771;28;20036;-82
2023/11/16 08:55:07;;;;;;;9.30;3.65;;;8.40;99.90;;;;;;4967703;28;20117;-82
2023/11/16 08:57:33;;;;;;;14.82;3.75;;;8.50;99.90;;;;;;5013795;28;20113;-81
2023/11/16 09:00:25;;;;;;;4.43;2.10;;;8.50;99.90;;;;;;4995676;28;20302;-82
2023/11/16 09:02:44;;;;;;;8.70;2.57;;;8.50;99.90;;;;;;4979088;28;20177;-82
2023/11/16 09:05:10;;;;;;;12.52;3.30;;;8.60;99.90;;;;;;5015216;28;20113;-81
2023/11/16 09:07:37;;;;;;;8.65;3.00;;;8.60;99.90;;;;;;5012335;28;21854;-81
2023/11/16 09:10:05;;;;;;;8.32;2.03;;;8.60;99.90;;;;;;4967460;28;20030;-81
2023/11/16 09:12:31;;;;;;;9.05;2.60;;;8.70;99.90;;;;;;4983522;28;20084;-81
2023/11/16 09:14:57;;;;;;;9.15;2.80;;;8.70;99.90;;;;;;4983682;28;20038;-82
2023/11/16 09:17:23;;;;;;;17.23;3.72;;;8.70;99.90;;;;;;4965637;28;20054;-82
2023/11/16 09:19:50;;;;;;;8.80;2.80;;;8.70;99.90;;;;;;4982666;28;20053;-82
2023/11/16 09:22:17;;;;;;;10.85;3.72;;;8.80;99.90;;;;;;4985777;28;20370;-80
2023/11/16 09:24:44;;;;;;;5.85;2.92;;;8.80;99.90;;;;;;4997954;28;20518;-81
2023/11/16 09:27:10;;;;;;;13.20;3.47;;;8.80;99.90;;;;;;5012814;28;20050;-81
2023/11/16 09:29:38;;;;;;;8.35;3.33;;;8.80;99.90;;;;;;4983353;28;20498;-81
2023/11/16 09:32:05;;;;;;;7.30;2.72;;;8.90;99.90;;;;;;4980842;28;20043;-80
2023/11/16 09:34:30;;;;;;;4.95;2.47;;;8.90;99.90;;;;;;4993862;28;20044;-81
2023/11/16 09:37:00;;;;;;;13.13;4.18;;;8.90;99.90;;;;;;4995852;28;20038;-81
2023/11/16 09:39:27;;;;;;;15.32;3.97;;;8.90;99.90;;;;;;4998682;28;20750;-81
2023/11/16 09:41:55;;;;;;;9.65;3.55;;;8.90;99.90;;;;;;4992592;28;20398;-82
2023/11/16 09:44:22;;;;;;;12.75;3.78;;;8.90;99.90;;;;;;4995637;28;20526;-81
2023/11/16 09:46:47;;;;;;;10.45;2.83;;;9.00;99.90;;;;;;4982626;28;20034;-81
2023/11/16 09:49:16;;;;;;;10.75;3.97;;;9.00;99.90;;;;;;4995451;28;20041;-80
2023/11/16 09:51:43;;;;;;;8.00;2.95;;;9.00;99.90;;;;;;4980572;28;20152;-81
2023/11/16 09:54:09;;;;;;;9.63;3.17;;;9.00;99.90;;;;;;4996381;28;20048;-79
2023/11/16 09:56:36;;;;;;;10.27;2.78;;;9.10;99.90;;;;;;4985327;28;20217;-79
2023/11/16 09:59:06;;;;;;;12.25;4.07;;;9.10;99.90;;;;;;4999593;28;20787;-80
2023/11/16 10:01:37;;;;;;;9.77;3.80;;;9.30;99.90;;;;;;4986299;28;20027;-80
2023/11/16 10:04:10;;;;;;;9.38;3.08;;;9.20;99.90;;;;;;4969634;28;20506;-81
2023/11/16 10:06:37;;;;;;;8.02;2.78;;;9.30;99.90;;;;;;4970095;28;20118;-80
2023/11/16 10:09:14;;;;;;;6.45;2.45;;;9.30;99.90;;;;;;5000999;28;20725;-79
2023/11/16 10:11:43;;;;;;;17.25;4.93;;;9.30;99.90;;;;;;4969220;28;20386;-80
2023/11/16 10:14:09;;;;;;;4.15;2.80;;;9.40;99.90;;;;;;4969034;28;20038;-80
2023/11/16 10:16:34;;;;;;;9.60;5.30;;;9.40;99.90;;;;;;5016201;28;20032;-80
2023/11/16 10:19:01;;;;;;;8.48;2.78;;;9.40;99.90;;;;;;4984954;28;20045;-79
2023/11/16 10:21:29;;;;;;;9.68;3.97;;;9.30;99.90;;;;;;4974537;28;20037;-79
2023/11/16 10:24:07;;;;;;;13.98;5.53;;;9.40;99.90;;;;;;4985146;28;20023;-80
2023/11/16 10:26:34;;;;;;;13.90;5.20;;;9.40;99.90;;;;;;5003136;28;20084;-79
2023/11/16 10:29:00;;;;;;;14.38;3.70;;;9.40;99.90;;;;;;4970024;28;20542;-80
2023/11/16 10:31:31;;;;;;;9.35;4.20;;;9.40;99.90;;;;;;4985159;28;20038;-79
2023/11/16 10:33:58;;;;;;;19.70;5.55;;;9.40;99.90;;;;;;4997085;28;20093;-80
2023/11/16 10:36:27;;;;;;;12.35;4.97;;;9.40;99.90;;;;;;5016724;28;20088;-79
2023/11/16 10:38:57;;;;;;;11.63;5.03;;;9.40;99.90;;;;;;4969737;28;20046;-79
2023/11/16 10:41:23;;;;;;;16.30;5.68;;;9.40;99.90;;;;;;4982429;28;20038;-79
2023/11/16 10:43:52;;;;;;;12.85;5.80;;;9.40;99.90;;;;;;4983785;28;20173;-80
2023/11/16 10:46:19;;;;;;;16.50;5.68;;;9.40;99.90;;;;;;5000983;28;20494;-79
2023/11/16 10:48:44;;;;;;;11.82;5.25;;;9.40;99.90;;;;;;4997920;28;20042;-80
2023/11/16 10:51:10;;;;;;;18.40;6.47;;;9.40;99.90;;;;;;5016302;28;20052;-79
2023/11/16 10:53:38;;;;;;;12.05;6.00;;;9.40;99.90;;;;;;4967590;28;20049;-79
2023/11/16 10:56:07;;;;;;;14.20;5.43;;;9.40;99.90;;;;;;4970299;28;20038;-79
2023/11/16 10:58:33;;;;;;;13.02;6.72;;;9.40;99.90;;;;;;4995917;28;20030;-79
2023/11/16 11:01:10;;;;;;;20.33;8.00;;;9.50;99.90;;;;;;4984262;28;20042;-80
2023/11/16 11:03:38;;;;;;;19.63;7.80;;;9.40;99.90;;;;;;4995687;28;20049;-79
2023/11/16 11:06:06;;;;;;;13.43;6.22;;;9.50;99.90;;;;;;4968428;28;20105;-80
2023/11/16 11:08:36;;;;;;;21.83;7.47;;;9.50;99.90;;;;;;5015193;28;20045;-80
2023/11/16 11:11:03;;;;;;;20.83;7.20;;;9.50;99.90;;;;;;4983549;28;20034;-80
2023/11/16 11:13:31;;;;;;;22.80;6.97;;;9.50;99.90;;;;;;4999830;28;20042;-79
2023/11/16 11:16:02;;;;;;;18.10;6.90;;;9.50;99.90;;;;;;4981691;28;20053;-80
2023/11/16 11:18:28;;;;;;;15.68;7.18;;;9.50;99.90;;;;;;4982975;28;20528;-79
2023/11/16 11:21:10;;;;;;;11.90;6.72;;;9.50;99.90;;;;;;4997935;28;20133;-79
2023/11/16 11:23:37;;;;;;;11.57;6.50;;;9.50;99.90;;;;;;5014410;28;20030;-79
2023/11/16 11:26:09;;;;;;;20.58;7.22;;;9.50;99.90;;;;;;4985097;28;20081;-80
2023/11/16 11:28:38;;;;;;;12.85;6.30;;;9.50;99.90;;;;;;4968032;28;20683;-80
2023/11/16 11:31:10;;;;;;;14.45;5.82;;;9.50;99.90;;;;;;4999000;28;20491;-81
2023/11/16 11:33:36;;;;;;;18.02;5.80;;;9.60;99.90;;;;;;4985947;28;20106;-81
2023/11/16 11:36:07;;;;;;;15.55;6.90;;;9.60;99.90;;;;;;5016940;28;20030;-81
2023/11/16 11:38:33;;;;;;;19.00;7.30;;;9.60;99.90;;;;;;4997346;28;20088;-82
2023/11/16 11:41:06;;;;;;;22.70;7.30;;;9.70;99.90;;;;;;4966917;28;20047;-81
2023/11/16 11:43:38;;;;;;;13.70;7.25;;;9.70;99.90;;;;;;4983753;28;20490;-80
2023/11/16 11:46:08;;;;;;;22.20;7.60;;;9.70;99.90;;;;;;4997762;28;20045;-80
2023/11/16 11:48:34;;;;;;;13.70;6.25;;;9.70;99.90;;;;;;4998409;28;20039;-81
2023/11/16 11:51:01;;;;;;;17.13;6.22;;;9.70;99.90;;;;;;4984297;28;20565;-80
2023/11/16 11:53:27;;;;;;;10.32;5.65;;;9.70;99.90;;;;;;4981828;28;20038;-80
2023/11/16 11:55:54;;;;;;;17.80;7.30;;;9.80;99.90;;;;;;4982108;28;20039;-80
2023/11/16 11:58:20;;;;;;;16.55;6.93;;;9.80;99.90;;;;;;4967434;28;20041;-80
2023/11/16 12:00:54;;;;;;;13.55;6.45;;;9.80;99.90;;;;;;4852690;28;10000772;-80
2023/11/16 12:03:20;;;;;;;16.83;5.97;;;9.80;99.90;;;;;;4991439;28;20291;-80
2023/11/16 12:06:00;;;;;;;20.30;6.57;;;9.90;99.90;;;;;;4951580;28;20819;-79
2023/11/16 12:08:46;;;;;;;12.10;6.05;;;9.90;99.90;;;;;;4964387;28;20108;-80
2023/11/16 12:11:14;;;;;;;;;;;9.80;99.90;;;;;;4996860;28;20551;-81
2023/11/16 12:13:40;;;;;;;16.55;5.50;;;9.90;99.90;;;;;;4982162;28;20025;-79
2023/11/16 12:16:07;;;;;;;12.50;5.82;;;9.90;99.90;;;;;;5013649;28;20656;-80
2023/11/16 12:18:37;;;;;;;15.20;5.45;;;9.90;99.90;;;;;;4977911;28;20057;-80
2023/11/16 12:21:11;;;;;;;17.83;6.38;;;9.90;99.90;;;;;;4966090;28;20494;-81
2023/11/16 12:23:55;;;;;;;18.35;5.60;;;9.80;99.90;;;;;;4994057;28;20038;-80
2023/11/16 12:26:28;;;;;;;12.70;5.82;;;9.80;99.90;;;;;;4984119;28;20042;-80
2023/11/16 12:28:57;;;;;;;11.65;4.78;;;9.80;99.90;;;;;;4991869;28;20100;-80
2023/11/16 12:31:26;;;;;;;17.27;6.47;;;9.80;99.90;;;;;;4981005;28;20046;-80
2023/11/16 12:33:52;;;;;;;23.52;5.60;;;9.70;99.90;;;;;;4981243;28;20030;-80
2023/11/16 12:36:21;;;;;;;15.75;5.28;;;9.70;99.90;;;;;;4992649;28;20048;-80
2023/11/16 12:38:49;;;;;;;17.33;7.15;;;9.70;99.90;;;;;;4980779;28;20038;-83
2023/11/16 12:41:16;;;;;;;19.55;6.60;;;9.60;99.90;;;;;;4995323;28;20038;-83
2023/11/16 12:43:42;;;;;;;14.50;6.70;;;9.60;99.90;;;;;;4995666;28;20066;-83
2023/11/16 12:46:08;;;;;;;12.80;5.22;;;9.60;99.90;;;;;;4983632;28;20069;-83
2023/11/16 12:48:34;;;;;;;14.98;7.22;;;9.60;99.90;;;;;;4980064;28;20062;-82
2023/11/16 12:50:59;;;;;;;19.10;6.85;;;9.50;99.90;;;;;;4970075;28;20403;-82
2023/11/16 12:53:25;;;;;;;9.55;6.63;;;9.50;99.90;;;;;;4996516;28;20054;-82
2023/11/16 12:55:51;;;;;;;15.68;6.00;;;9.50;99.90;;;;;;4981863;28;20040;-83